createdAt,value
2019-05-07T00:00:46.892Z,8.93
2019-05-07T00:03:49.085Z,5.97
2019-05-07T00:06:52.785Z,6.40
2019-05-07T00:09:53.551Z,5.67
2019-05-07T00:12:55.781Z,6.27
2019-05-07T00:15:58.016Z,6.47
2019-05-07T00:19:02.063Z,6.47
2019-05-07T00:22:02.553Z,6.30
2019-05-07T00:25:04.839Z,6.90
2019-05-07T00:28:07.027Z,6.67
2019-05-07T00:31:09.299Z,6.90
2019-05-07T00:34:12.661Z,6.20
2019-05-07T00:37:33.146Z,8.10
2019-05-07T00:40:42.756Z,7.60
2019-05-07T00:43:46.725Z,9.37
2019-05-07T00:46:48.965Z,6.77
2019-05-07T00:49:52.275Z,6.53
2019-05-07T00:52:53.434Z,6.97
2019-05-07T00:55:55.695Z,8.60
2019-05-07T00:58:58.222Z,8.87
2019-05-07T01:02:02.216Z,5.97
2019-05-07T01:05:03.151Z,6.50
2019-05-07T01:08:05.095Z,6.30
2019-05-07T01:11:07.319Z,5.97
2019-05-07T01:14:09.591Z,7.60
2019-05-07T01:17:13.006Z,6.20
2019-05-07T01:20:14.083Z,7.13
2019-05-07T01:23:16.299Z,7.03
2019-05-07T01:26:18.566Z,4.67
2019-05-07T01:29:22.608Z,7.00
2019-05-07T01:32:27.275Z,6.53
2019-05-07T01:35:35.115Z,7.17
2019-05-07T01:38:37.325Z,5.87
2019-05-07T01:41:41.783Z,7.93
2019-05-07T01:44:42.079Z,6.57
2019-05-07T01:47:44.080Z,6.17
2019-05-07T01:50:46.327Z,8.67
2019-05-07T01:53:48.580Z,5.83
2019-05-07T01:56:52.167Z,5.80
2019-05-07T01:59:53.042Z,5.07
2019-05-07T02:02:59.510Z,5.63
2019-05-07T02:06:05.855Z,6.67
2019-05-07T02:09:15.618Z,6.43
2019-05-07T02:12:25.047Z,8.40
2019-05-07T02:15:27.276Z,7.50
2019-05-07T02:18:29.471Z,5.67
2019-05-07T02:21:32.961Z,5.80
2019-05-07T02:24:34.091Z,6.90
2019-05-07T02:27:36.235Z,6.33
2019-05-07T02:30:38.460Z,8.03
2019-05-07T02:33:43.371Z,8.93
2019-05-07T02:36:43.573Z,5.00
2019-05-07T02:39:53.108Z,8.37
2019-05-07T02:42:53.917Z,6.50
2019-05-07T02:46:20.660Z,5.97
2019-05-07T02:49:13.896Z,4.33
2019-05-07T02:52:18.339Z,5.80
2019-05-07T02:55:25.133Z,6.60
2019-05-07T02:58:27.375Z,7.43
2019-05-07T03:01:29.688Z,6.43
2019-05-07T03:04:33.300Z,6.63
2019-05-07T03:07:34.197Z,5.07
2019-05-07T03:10:36.404Z,7.53
2019-05-07T03:13:38.656Z,7.00
2019-05-07T03:16:47.515Z,9.40
2019-05-07T03:19:43.291Z,7.43
2019-05-07T03:22:45.574Z,7.17
2019-05-07T03:25:57.035Z,7.63
2019-05-07T03:29:03.912Z,5.97
2019-05-07T03:32:09.105Z,7.10
2019-05-07T03:35:19.780Z,6.93
2019-05-07T03:38:22.897Z,6.67
2019-05-07T03:41:25.248Z,6.73
2019-05-07T03:44:33.835Z,6.60
2019-05-07T03:47:38.148Z,7.43
2019-05-07T03:50:42.845Z,4.77
2019-05-07T03:53:43.693Z,6.43
2019-05-07T03:56:44.825Z,6.57
2019-05-07T03:59:47.064Z,5.93
2019-05-07T04:02:49.316Z,6.23
2019-05-07T04:05:53.125Z,5.80
2019-05-07T04:08:53.812Z,5.53
2019-05-07T04:11:56.045Z,6.83
2019-05-07T04:14:58.244Z,5.43
2019-05-07T04:18:03.307Z,6.80
2019-05-07T04:21:04.019Z,7.17
2019-05-07T04:24:13.753Z,7.80
2019-05-07T04:27:27.339Z,6.07
2019-05-07T04:30:32.850Z,7.73
2019-05-07T04:33:35.151Z,6.77
2019-05-07T04:36:43.892Z,6.57
2019-05-07T04:39:53.438Z,8.53
2019-05-07T04:42:53.874Z,6.70
2019-05-07T04:45:54.718Z,30.37
2019-05-07T04:48:57.011Z,19.83
2019-05-07T04:52:03.916Z,11.63
2019-05-07T04:55:05.249Z,9.57
2019-05-07T04:58:09.124Z,7.53
2019-05-07T05:01:09.872Z,5.90
2019-05-07T05:04:25.312Z,10.53
2019-05-07T05:07:14.353Z,9.20
2019-05-07T05:10:16.692Z,9.30
2019-05-07T05:13:18.932Z,7.37
2019-05-07T05:16:22.717Z,7.73
2019-05-07T05:19:24.935Z,7.37
2019-05-07T05:22:34.637Z,8.00
2019-05-07T05:25:38.539Z,6.87
2019-05-07T05:28:41.900Z,9.70
2019-05-07T05:31:43.000Z,11.23
2019-05-07T05:34:45.195Z,7.13
2019-05-07T05:37:47.424Z,8.07
2019-05-07T05:40:51.854Z,7.67
2019-05-07T05:43:58.609Z,8.20
2019-05-07T05:47:02.421Z,6.37
2019-05-07T05:50:03.363Z,6.90
2019-05-07T05:53:12.130Z,5.40
2019-05-07T05:56:22.714Z,7.43
2019-05-07T05:59:48.007Z,8.13
2019-05-07T06:04:45.431Z,6.93
2019-05-07T06:07:53.199Z,6.37
2019-05-07T06:11:02.259Z,5.83
2019-05-07T06:14:08.831Z,4.87
2019-05-07T06:19:18.677Z,7.03
2019-05-07T06:22:42.490Z,8.03
2019-05-07T06:25:44.721Z,7.73
2019-05-07T06:28:46.948Z,9.27
2019-05-07T06:31:53.808Z,6.37
2019-05-07T06:34:56.074Z,9.27
2019-05-07T06:37:58.349Z,9.60
2019-05-07T06:41:06.219Z,9.97
2019-05-07T06:44:13.475Z,9.17
2019-05-07T06:47:15.735Z,9.50
2019-05-07T06:50:17.987Z,9.47
2019-05-07T06:53:22.190Z,11.10
2019-05-07T06:56:23.003Z,12.20
2019-05-07T06:59:32.645Z,11.67
2019-05-07T07:02:46.287Z,12.90
2019-05-07T07:06:00.190Z,11.90
2019-05-07T07:09:07.103Z,11.93
2019-05-07T07:12:12.911Z,11.40
2019-05-07T07:15:13.519Z,12.70
2019-05-07T07:18:15.807Z,11.37
2019-05-07T07:21:18.072Z,12.43
2019-05-07T07:24:22.206Z,10.40
2019-05-07T07:27:22.855Z,12.13
2019-05-07T07:30:32.480Z,14.97
2019-05-07T07:33:34.495Z,11.07
2019-05-07T07:36:42.347Z,11.57
2019-05-07T07:39:43.727Z,10.60
2019-05-07T07:42:45.993Z,12.80
2019-05-07T07:45:48.252Z,12.87
2019-05-07T07:49:04.357Z,11.40
2019-05-07T07:51:52.897Z,13.03
2019-05-07T07:54:55.105Z,11.33
2019-05-07T07:58:04.891Z,10.20
2019-05-07T08:01:14.395Z,9.67
2019-05-07T08:04:16.686Z,12.27
2019-05-07T08:07:18.939Z,9.80
2019-05-07T08:10:22.128Z,13.43
2019-05-07T08:13:23.500Z,10.17
2019-05-07T08:16:25.759Z,10.50
2019-05-07T08:19:28.003Z,10.10
2019-05-07T08:22:32.807Z,15.83
2019-05-07T08:25:38.397Z,13.33
2019-05-07T08:28:41.922Z,14.57
2019-05-07T08:31:47.508Z,11.93
2019-05-07T08:34:55.228Z,10.80
2019-05-07T08:37:57.484Z,13.90
2019-05-07T08:40:59.721Z,12.50
2019-05-07T08:44:11.512Z,11.67
2019-05-07T08:47:15.237Z,12.43
2019-05-07T08:51:22.254Z,11.70
2019-05-07T08:54:22.723Z,12.33
2019-05-07T08:57:24.795Z,12.23
2019-05-07T09:00:27.108Z,14.30
2019-05-07T09:03:34.939Z,14.23
2019-05-07T09:06:37.176Z,13.97
2019-05-07T09:09:39.483Z,15.93
2019-05-07T09:12:42.883Z,14.13
2019-05-07T09:15:43.975Z,10.40
2019-05-07T09:18:46.268Z,12.30
2019-05-07T09:21:48.472Z,13.63
2019-05-07T09:24:52.597Z,12.53
2019-05-07T09:27:53.065Z,12.27
2019-05-07T09:31:02.956Z,10.33
2019-05-07T09:34:05.263Z,15.60
2019-05-07T09:37:08.301Z,13.67
2019-05-07T09:40:12.537Z,11.57
2019-05-07T09:43:12.987Z,12.63
2019-05-07T09:46:15.252Z,11.27
2019-05-07T09:49:17.484Z,12.27
2019-05-07T09:52:19.790Z,9.57
2019-05-07T09:55:23.350Z,10.60
2019-05-07T09:58:35.626Z,9.80
2019-05-07T10:01:26.675Z,12.63
2019-05-07T10:04:28.967Z,10.07
2019-05-07T10:07:32.439Z,9.63
2019-05-07T10:10:33.573Z,8.23
2019-05-07T10:13:42.026Z,11.27
2019-05-07T10:16:48.244Z,11.17
2019-05-07T10:19:52.271Z,10.20
2019-05-07T10:22:52.853Z,7.60
2019-05-07T10:25:55.154Z,13.03
2019-05-07T10:28:57.450Z,11.60
2019-05-07T10:32:02.084Z,10.10
2019-05-07T10:35:02.413Z,8.57
2019-05-07T10:38:04.311Z,9.50
2019-05-07T10:41:06.695Z,11.53
2019-05-07T10:44:08.957Z,9.90
2019-05-07T10:47:16.913Z,11.80
2019-05-07T10:50:35.561Z,8.57
2019-05-07T10:53:24.556Z,9.80
2019-05-07T10:56:26.787Z,9.27
2019-05-07T10:59:29.032Z,13.00
2019-05-07T11:02:32.432Z,13.33
2019-05-07T11:05:33.591Z,11.03
2019-05-07T11:08:35.887Z,14.43
2019-05-07T11:11:38.214Z,10.87
2019-05-07T11:14:40.443Z,11.13
2019-05-07T11:17:47.228Z,13.13
2019-05-07T11:20:51.144Z,10.23
2019-05-07T11:23:52.188Z,13.03
2019-05-07T11:26:54.111Z,15.27
2019-05-07T11:29:56.420Z,12.87
2019-05-07T11:32:58.712Z,15.67
2019-05-07T11:36:02.164Z,16.53
2019-05-07T11:39:04.863Z,15.67
2019-05-07T11:42:12.773Z,11.97
2019-05-07T11:45:20.057Z,12.30
2019-05-07T11:48:22.509Z,11.20
2019-05-07T11:51:29.343Z,13.30
2019-05-07T11:54:31.888Z,10.13
2019-05-07T11:57:33.893Z,13.07
2019-05-07T12:00:43.652Z,11.53
2019-05-07T12:03:45.884Z,13.57
2019-05-07T12:06:48.155Z,11.77
2019-05-07T12:09:52.555Z,14.07
2019-05-07T12:12:52.641Z,13.33
2019-05-07T12:15:54.903Z,13.97
2019-05-07T12:18:57.136Z,12.90
2019-05-07T12:21:59.712Z,12.57
2019-05-07T12:25:02.638Z,9.83
2019-05-07T12:28:03.995Z,10.73
2019-05-07T12:31:15.711Z,11.70
2019-05-07T12:34:22.904Z,16.33
2019-05-07T12:37:24.062Z,11.40
2019-05-07T12:40:26.370Z,11.87
2019-05-07T12:43:28.749Z,13.60
2019-05-07T12:46:33.132Z,11.53
2019-05-07T12:49:33.287Z,14.40
2019-05-07T12:53:42.578Z,15.07
2019-05-07T12:56:44.837Z,17.47
2019-05-07T12:59:49.562Z,13.00
2019-05-07T13:03:12.827Z,12.00
2019-05-07T13:06:14.903Z,13.57
2019-05-07T13:09:17.170Z,11.03
2019-05-07T13:12:21.624Z,12.70
2019-05-07T13:15:27.029Z,11.53
2019-05-07T13:18:24.027Z,12.63
2019-05-07T13:21:26.255Z,13.37
2019-05-07T13:24:28.503Z,9.73
2019-05-07T13:27:32.006Z,11.20
2019-05-07T13:30:33.163Z,9.87
2019-05-07T13:33:35.511Z,8.47
2019-05-07T13:36:38.972Z,10.33
2019-05-07T13:39:46.031Z,14.80
2019-05-07T13:42:52.971Z,16.00
2019-05-07T13:46:02.534Z,12.77
2019-05-07T13:49:03.928Z,12.97
2019-05-07T13:52:06.349Z,12.83
2019-05-07T13:55:08.644Z,14.67
2019-05-07T13:58:14.051Z,13.73
2019-05-07T14:02:15.834Z,16.17
2019-05-07T14:05:18.259Z,11.43
2019-05-07T14:08:22.653Z,10.87
2019-05-07T14:11:22.905Z,12.33
2019-05-07T14:14:25.169Z,14.50
2019-05-07T14:17:27.487Z,13.33
2019-05-07T14:20:29.771Z,14.67
2019-05-07T14:23:32.543Z,13.80
2019-05-07T14:26:34.341Z,12.37
2019-05-07T14:29:36.653Z,14.17
2019-05-07T14:32:47.215Z,12.57
2019-05-07T14:36:02.177Z,14.33
2019-05-07T14:39:05.271Z,15.83
2019-05-07T14:42:08.189Z,19.50
2019-05-07T14:45:10.501Z,13.23
2019-05-07T14:48:12.848Z,13.23
2019-05-07T14:51:15.109Z,13.07
2019-05-07T14:54:18.397Z,14.67
2019-05-07T14:57:20.214Z,13.27
2019-05-07T15:00:22.543Z,13.30
2019-05-07T15:03:24.285Z,9.70
2019-05-07T15:06:26.555Z,13.20
2019-05-07T15:09:28.887Z,16.37
2019-05-07T15:12:32.897Z,15.17
2019-05-07T15:15:33.419Z,26.13
2019-05-07T15:18:42.383Z,11.73
2019-05-07T15:21:43.694Z,11.03
2019-05-07T15:24:46.097Z,17.83
2019-05-07T15:27:52.549Z,13.10
2019-05-07T15:30:59.123Z,12.57
2019-05-07T15:34:02.904Z,14.47
2019-05-07T15:37:03.745Z,11.17
2019-05-07T15:40:06.084Z,10.07
2019-05-07T15:43:08.322Z,11.17
2019-05-07T15:46:12.139Z,11.00
2019-05-07T15:49:12.882Z,13.07
2019-05-07T15:52:19.189Z,14.53
2019-05-07T15:55:22.560Z,12.07
2019-05-07T15:58:23.695Z,14.87
2019-05-07T16:01:25.951Z,11.77
2019-05-07T16:04:28.218Z,12.80
2019-05-07T16:07:32.667Z,14.50
2019-05-07T16:10:32.724Z,11.53
2019-05-07T16:13:35.921Z,12.90
2019-05-07T16:16:42.713Z,15.43
2019-05-07T16:19:42.907Z,14.37
2019-05-07T16:22:46.762Z,12.17
2019-05-07T16:25:49.013Z,14.03
2019-05-07T16:28:52.848Z,13.33
2019-05-07T16:31:53.476Z,11.67
2019-05-07T16:34:55.687Z,13.00
2019-05-07T16:37:57.913Z,11.90
2019-05-07T16:41:00.119Z,12.70
2019-05-07T16:44:03.043Z,16.93
2019-05-07T16:47:05.297Z,13.57
2019-05-07T16:50:07.598Z,12.23
2019-05-07T16:53:12.083Z,11.30
2019-05-07T16:56:12.459Z,12.97
2019-05-07T16:59:14.413Z,14.97
2019-05-07T17:02:20.012Z,14.37
2019-05-07T17:05:22.842Z,12.87
2019-05-07T17:08:31.753Z,13.53
2019-05-07T17:11:32.239Z,12.37
2019-05-07T17:14:34.299Z,14.83
2019-05-07T17:17:36.526Z,12.53
2019-05-07T17:20:38.778Z,13.70
2019-05-07T17:23:44.421Z,14.83
2019-05-07T17:26:43.267Z,14.23
2019-05-07T17:29:45.518Z,11.27
2019-05-07T17:32:47.819Z,12.97
2019-05-07T17:35:51.787Z,14.77
2019-05-07T17:38:53.060Z,12.67
2019-05-07T17:41:55.291Z,14.00
2019-05-07T17:44:57.516Z,13.03
2019-05-07T17:47:59.757Z,14.30
2019-05-07T17:52:06.690Z,13.63
2019-05-07T17:55:10.487Z,14.50
2019-05-07T17:58:12.872Z,29.53
2019-05-07T18:01:13.567Z,16.67
2019-05-07T18:04:15.876Z,16.57
2019-05-07T18:07:18.276Z,14.13
2019-05-07T18:10:21.738Z,14.30
2019-05-07T18:13:22.819Z,13.93
2019-05-07T18:16:29.351Z,17.53
2019-05-07T18:19:33.280Z,13.97
2019-05-07T18:22:35.339Z,10.87
2019-05-07T18:25:37.592Z,14.93
2019-05-07T18:28:41.564Z,12.80
2019-05-07T18:31:46.343Z,12.43
2019-05-07T18:34:48.574Z,12.97
2019-05-07T18:37:52.559Z,14.50
2019-05-07T18:40:53.617Z,12.40
2019-05-07T18:44:08.209Z,14.77
2019-05-07T18:46:58.152Z,15.37
2019-05-07T18:50:02.702Z,13.83
2019-05-07T18:53:02.912Z,16.30
2019-05-07T18:56:05.035Z,13.67
2019-05-07T18:59:07.240Z,22.83
2019-05-07T19:02:09.513Z,15.97
2019-05-07T19:05:13.077Z,13.60
2019-05-07T19:08:14.161Z,12.90
2019-05-07T19:11:16.408Z,14.57
2019-05-07T19:14:18.639Z,15.10
2019-05-07T19:17:21.873Z,14.67
2019-05-07T19:20:23.246Z,13.30
2019-05-07T19:23:25.552Z,16.77
2019-05-07T19:26:27.804Z,12.93
2019-05-07T19:29:32.383Z,15.00
2019-05-07T19:32:32.437Z,15.73
2019-05-07T19:35:34.621Z,13.93
2019-05-07T19:38:36.847Z,13.40
2019-05-07T19:41:39.069Z,13.97
2019-05-07T19:44:42.334Z,17.73
2019-05-07T19:47:43.579Z,16.03
2019-05-07T19:50:45.896Z,13.13
2019-05-07T19:53:48.429Z,15.73
2019-05-07T19:56:51.916Z,15.50
2019-05-07T19:59:52.903Z,14.43
2019-05-07T20:02:56.471Z,15.20
2019-05-07T20:05:58.787Z,14.17
2019-05-07T20:09:09.868Z,15.03
2019-05-07T20:12:03.509Z,15.03
2019-05-07T20:15:05.865Z,19.00
2019-05-07T20:18:08.145Z,15.90
2019-05-07T20:21:12.345Z,14.07
2019-05-07T20:24:12.724Z,15.23
2019-05-07T20:27:14.996Z,17.83
2019-05-07T20:30:17.315Z,14.30
2019-05-07T20:33:21.845Z,14.43
2019-05-07T20:36:24.900Z,14.00
2019-05-07T20:39:27.157Z,13.27
2019-05-07T20:42:29.411Z,15.77
2019-05-07T20:45:32.134Z,16.20
2019-05-07T20:48:34.002Z,14.90
2019-05-07T20:51:36.241Z,17.60
2019-05-07T20:54:43.434Z,12.83
2019-05-07T20:57:46.127Z,15.17
2019-05-07T21:00:48.414Z,17.47
2019-05-07T21:03:52.589Z,17.23
2019-05-07T21:06:52.997Z,17.93
2019-05-07T21:09:55.256Z,15.60
2019-05-07T21:12:58.299Z,17.30
2019-05-07T21:16:00.519Z,15.67
2019-05-07T21:19:02.775Z,17.27
2019-05-07T21:22:05.012Z,18.37
2019-05-07T21:25:07.284Z,14.43
2019-05-07T21:28:09.554Z,16.80
2019-05-07T21:31:12.017Z,15.50
2019-05-07T21:34:14.039Z,15.10
2019-05-07T21:37:16.279Z,15.90
2019-05-07T21:40:18.525Z,12.83
2019-05-07T21:43:22.256Z,13.17
2019-05-07T21:46:23.045Z,13.83
2019-05-07T21:49:25.263Z,11.50
2019-05-07T21:52:27.559Z,16.37
2019-05-07T21:55:35.515Z,12.87
2019-05-07T21:58:41.364Z,13.23
2019-05-07T22:01:46.280Z,10.30
2019-05-07T22:04:48.531Z,15.00
2019-05-07T22:07:54.213Z,12.17
2019-05-07T22:10:53.083Z,15.70
2019-05-07T22:13:55.385Z,13.50
2019-05-07T22:16:57.599Z,16.33
2019-05-07T22:19:59.843Z,12.90
2019-05-07T22:23:02.807Z,12.90
2019-05-07T22:26:19.148Z,12.33
2019-05-07T22:29:06.558Z,15.70
2019-05-07T22:32:13.391Z,16.07
2019-05-07T22:35:19.491Z,13.60
2019-05-07T22:38:22.837Z,12.07
2019-05-07T22:41:23.960Z,15.17
2019-05-07T22:44:26.520Z,13.23
2019-05-07T22:47:28.417Z,12.67
2019-05-07T22:50:32.930Z,11.73
2019-05-07T22:53:32.997Z,11.93
2019-05-07T22:56:42.016Z,10.90
2019-05-07T22:59:43.350Z,12.57
2019-05-07T23:02:45.303Z,11.97
2019-05-07T23:05:47.569Z,15.43
2019-05-07T23:08:49.811Z,14.03
2019-05-07T23:11:54.729Z,12.73
2019-05-07T23:14:54.416Z,10.67
2019-05-07T23:17:56.713Z,13.83
2019-05-07T23:20:58.955Z,11.20
2019-05-07T23:24:01.172Z,17.20
2019-05-07T23:27:03.387Z,13.13
2019-05-07T23:30:05.655Z,13.43
2019-05-07T23:33:07.948Z,15.40
2019-05-07T23:36:10.211Z,14.23
2019-05-07T23:39:12.471Z,11.27
2019-05-07T23:42:18.250Z,13.33
2019-05-07T23:45:22.127Z,14.40
2019-05-07T23:48:22.907Z,13.13
2019-05-07T23:51:24.995Z,13.93
2019-05-07T23:54:27.226Z,15.40
2019-05-07T23:57:29.485Z,13.80
